Time;durP1;ratioP1;P1;durP2;ratioP2;P2;SDS_P1;SDS_P2;PMS_P1;PMS_P2;Temp;Humidity;BMP_temperature;BMP_pressure;BME280_temperature;BME280_humidity;BME280_pressure;Samples;Min_cycle;Max_cycle;Signal;HPM_P1;HPM_P2
2024/04/16 00:00:26;;;;;;;17.52;2.58;;;;;;;7.29;100.00;100653.22;5467218;26;20001;-73
2024/04/16 00:02:51;;;;;;;13.63;2.78;;;;;;;7.26;100.00;100653.75;5465294;26;20001;-73
2024/04/16 00:05:17;;;;;;;13.73;2.85;;;;;;;7.26;100.00;100641.88;5467690;26;20006;-73
2024/04/16 00:07:42;;;;;;;16.38;3.00;;;;;;;7.21;100.00;100644.63;5497700;26;20002;-73
2024/04/16 00:10:07;;;;;;;17.42;2.65;;;;;;;7.21;100.00;100634.41;5530481;26;20033;-73
2024/04/16 00:12:33;;;;;;;10.43;2.15;;;;;;;7.19;100.00;100638.53;5437400;26;20012;-73
2024/04/16 00:14:58;;;;;;;19.30;3.55;;;;;;;7.15;100.00;100630.78;5497975;26;20477;-73
2024/04/16 00:17:27;;;;;;;13.15;3.28;;;;;;;7.11;100.00;100639.88;5497906;26;20016;-73
2024/04/16 00:19:54;;;;;;;19.23;2.95;;;;;;;7.11;100.00;100639.88;5436235;25;20341;-78
2024/04/16 00:22:19;;;;;;;9.95;2.15;;;;;;;7.05;100.00;100646.47;5504330;26;20438;-73
2024/04/16 00:24:45;;;;;;;15.02;2.08;;;;;;;7.06;100.00;100640.69;5438133;26;20012;-73
2024/04/16 00:27:10;;;;;;;11.77;2.55;;;;;;;6.98;100.00;100640.34;5467366;26;19997;-73
2024/04/16 00:29:36;;;;;;;14.40;2.47;;;;;;;6.98;100.00;100640.34;5431800;26;20005;-72
2024/04/16 00:32:01;;;;;;;12.68;2.58;;;;;;;6.94;100.00;100629.84;5430951;26;20024;-73
2024/04/16 00:34:27;;;;;;;16.73;2.45;;;;;;;6.87;100.00;100628.41;5408034;26;20077;-73
2024/04/16 00:36:52;;;;;;;15.68;2.70;;;;;;;6.87;100.00;100628.41;5437442;26;20016;-72
2024/04/16 00:39:18;;;;;;;14.07;2.40;;;;;;;6.82;100.00;100620.09;5498206;26;20043;-73
2024/04/16 00:41:43;;;;;;;12.23;2.33;;;;;;;6.82;100.00;100620.91;5530155;26;20009;-73
2024/04/16 00:44:09;;;;;;;14.23;2.72;;;;;;;6.84;100.00;100621.50;5466968;26;19998;-73
2024/04/16 00:46:34;;;;;;;12.18;3.00;;;;;;;6.77;100.00;100618.16;5436782;26;20073;-72
2024/04/16 00:49:00;;;;;;;13.13;3.17;;;;;;;6.79;100.00;100610.41;5464375;26;20001;-73
2024/04/16 00:51:25;;;;;;;20.75;2.70;;;;;;;6.76;100.00;100610.13;5467248;26;20029;-73
2024/04/16 00:53:51;;;;;;;12.15;2.15;;;;;;;6.74;100.00;100610.38;5488334;26;20036;-73
2024/04/16 00:56:16;;;;;;;11.40;1.95;;;;;;;6.72;100.00;100607.91;5520389;26;20091;-73
2024/04/16 00:58:42;;;;;;;12.45;2.85;;;;;;;6.72;100.00;100604.31;5494634;26;20329;-73
2024/04/16 01:01:07;;;;;;;14.43;2.67;;;;;;;6.79;100.00;100599.38;5464020;26;20037;-73
2024/04/16 01:03:33;;;;;;;11.68;2.20;;;;;;;6.71;100.00;100613.66;5496210;26;19997;-73
2024/04/16 01:05:58;;;;;;;12.30;2.17;;;;;;;6.75;100.00;100609.31;5467228;26;20016;-72
2024/04/16 01:08:24;;;;;;;11.80;1.90;;;;;;;6.74;100.00;100607.63;5467161;26;20446;-73
2024/04/16 01:10:50;;;;;;;10.30;2.03;;;;;;;6.72;100.00;100605.13;5467080;26;20001;-73
2024/04/16 01:13:15;;;;;;;15.98;2.65;;;;;;;6.71;100.00;100599.88;5467265;26;20002;-73
2024/04/16 01:15:41;;;;;;;11.15;1.98;;;;;;;6.75;100.00;100598.25;5436917;26;20073;-73
2024/04/16 01:18:07;;;;;;;13.30;2.58;;;;;;;6.70;100.00;100596.28;5467206;26;20322;-73
2024/04/16 01:20:33;;;;;;;13.63;2.63;;;;;;;6.67;100.00;100596.00;5450509;25;20001;-73
2024/04/16 01:22:58;;;;;;;14.65;2.70;;;;;;;6.65;100.00;100593.50;5400590;26;19994;-73
2024/04/16 01:25:24;;;;;;;15.25;2.67;;;;;;;6.65;100.00;100584.38;5428087;26;20001;-73
2024/04/16 01:27:49;;;;;;;12.20;3.10;;;;;;;6.63;100.00;100595.72;5460917;26;20002;-73
2024/04/16 01:30:15;;;;;;;11.52;2.38;;;;;;;6.62;100.00;100595.97;5427877;26;20081;-72
2024/04/16 01:32:40;;;;;;;10.55;2.58;;;;;;;6.62;100.00;100598.72;5466792;26;19998;-73
2024/04/16 01:35:06;;;;;;;10.80;1.90;;;;;;;6.59;100.00;100590.97;5466285;26;20410;-72
2024/04/16 01:37:31;;;;;;;15.18;2.60;;;;;;;6.56;100.00;100592.34;5494649;26;20005;-73
2024/04/16 01:39:57;;;;;;;14.80;2.15;;;;;;;6.55;100.00;100598.13;5524197;25;20001;-73
2024/04/16 01:42:22;;;;;;;10.20;2.50;;;;;;;6.55;100.00;100600.91;5529777;26;20016;-73
2024/04/16 01:44:50;;;;;;;12.68;2.53;;;;;;;6.54;100.00;100599.22;5496364;26;20446;-73
2024/04/16 01:47:16;;;;;;;12.60;2.40;;;;;;;6.53;100.00;100600.31;5467014;26;20001;-73
2024/04/16 01:49:41;;;;;;;11.00;2.47;;;;;;;6.54;100.00;100590.94;5496618;26;20072;-73
2024/04/16 01:52:07;;;;;;;15.73;2.45;;;;;;;6.52;100.00;100590.34;5496836;26;20007;-73
2024/04/16 01:54:32;;;;;;;14.82;2.53;;;;;;;6.54;100.00;100590.94;5487318;26;20006;-73
2024/04/16 01:56:58;;;;;;;13.43;2.95;;;;;;;6.56;100.00;100586.00;5466475;26;20017;-73
2024/04/16 01:59:23;;;;;;;12.50;2.33;;;;;;;6.57;100.00;100595.91;5464744;26;20014;-72
2024/04/16 02:01:48;;;;;;;8.77;2.13;;;;;;;6.58;100.00;100595.66;5435796;26;20013;-73
2024/04/16 02:04:14;;;;;;;12.65;2.05;;;;;;;6.60;100.00;100587.09;5528965;26;20405;-73
2024/04/16 02:06:39;;;;;;;16.20;2.58;;;;;;;6.57;100.00;100584.88;5463063;26;19998;-73
2024/04/16 02:09:05;;;;;;;10.57;2.10;;;;;;;6.59;100.00;100577.19;5529117;26;20013;-73
2024/04/16 02:11:30;;;;;;;12.82;2.25;;;;;;;6.61;100.00;100581.34;5496479;26;20367;-73
2024/04/16 02:13:56;;;;;;;12.07;1.92;;;;;;;6.58;100.00;100581.03;5528590;26;20005;-73
2024/04/16 02:16:21;;;;;;;12.25;2.22;;;;;;;6.59;100.00;100577.19;5434884;26;19994;-73
2024/04/16 02:18:47;;;;;;;13.00;2.10;;;;;;;6.59;100.00;100578.00;5496393;26;20457;-73
2024/04/16 02:21:12;;;;;;;12.27;2.33;;;;;;;6.52;100.00;100585.69;5509591;26;19997;-73
2024/04/16 02:23:37;;;;;;;9.25;2.03;;;;;;;6.52;100.00;100587.59;5496302;26;20061;-73
2024/04/16 02:26:03;;;;;;;14.13;2.60;;;;;;;6.50;100.00;100574.09;5435675;26;20012;-73
2024/04/16 02:28:29;;;;;;;11.43;2.10;;;;;;;6.47;100.00;100580.13;5400823;26;20013;-73
2024/04/16 02:30:54;;;;;;;10.05;2.03;;;;;;;6.46;100.00;100568.28;5462303;26;20038;-73
2024/04/16 02:33:20;;;;;;;12.45;2.60;;;;;;;6.44;100.00;100570.47;5466009;26;20556;-72
2024/04/16 02:35:45;;;;;;;13.80;2.40;;;;;;;6.44;100.00;100567.69;5496412;26;19998;-73
2024/04/16 02:38:11;;;;;;;13.13;2.33;;;;;;;6.42;100.00;100569.06;5435618;26;19997;-73
2024/04/16 02:40:37;;;;;;;11.90;2.55;;;;;;;6.34;100.00;100570.38;5428820;26;20013;-73
2024/04/16 02:43:02;;;;;;;12.60;3.08;;;;;;;6.33;100.00;100563.22;5476567;26;20454;-73
2024/04/16 02:45:28;;;;;;;7.28;1.80;;;;;;;6.32;100.00;100567.03;5486513;26;20062;-73
2024/04/16 02:47:54;;;;;;;13.20;2.47;;;;;;;6.31;100.00;100559.88;5475671;26;20022;-73
2024/04/16 02:50:20;;;;;;;13.18;2.42;;;;;;;6.36;100.00;100561.84;5485460;26;20006;-73
2024/04/16 02:52:45;;;;;;;9.55;1.65;;;;;;;6.32;100.00;100568.97;5486941;26;20010;-72
2024/04/16 02:55:11;;;;;;;7.07;1.70;;;;;;;6.30;100.00;100563.75;5397024;26;20005;-72
2024/04/16 02:57:36;;;;;;;9.65;2.35;;;;;;;6.32;100.00;100572.56;5420395;26;19998;-73
2024/04/16 03:00:02;;;;;;;11.07;2.10;;;;;;;6.34;100.00;100567.63;5486760;26;20001;-73
2024/04/16 03:02:28;;;;;;;11.10;2.65;;;;;;;6.39;100.00;100566.84;5453699;26;20006;-73
2024/04/16 03:04:53;;;;;;;10.80;2.42;;;;;;;6.36;100.00;100567.38;5477881;26;20013;-73
2024/04/16 03:07:19;;;;;;;14.82;3.38;;;;;;;6.39;100.00;100567.66;5467647;26;19994;-73
2024/04/16 03:09:44;;;;;;;11.18;1.88;;;;;;;6.39;100.00;100558.56;5475692;26;20372;-73
2024/04/16 03:12:10;;;;;;;14.32;2.33;;;;;;;6.43;100.00;100560.50;5450112;26;20009;-73
2024/04/16 03:14:35;;;;;;;8.90;2.08;;;;;;;6.41;100.00;100556.38;5482044;26;20006;-72
2024/04/16 03:17:00;;;;;;;10.93;1.92;;;;;;;6.39;100.00;100550.28;5500644;26;20002;-73
2024/04/16 03:19:26;;;;;;;12.02;2.08;;;;;;;6.43;100.00;100557.75;5537610;25;20066;-73
2024/04/16 03:21:52;;;;;;;13.05;2.28;;;;;;;6.41;100.00;100559.13;5476463;26;20013;-72
2024/04/16 03:24:17;;;;;;;11.90;2.30;;;;;;;6.42;100.00;100561.59;5471227;26;20002;-73
2024/04/16 03:26:43;;;;;;;14.43;2.47;;;;;;;6.46;100.00;100551.72;5437387;26;20476;-73
2024/04/16 03:29:09;;;;;;;7.97;2.67;;;;;;;6.46;100.00;100561.91;5449904;26;20051;-72
2024/04/16 03:31:34;;;;;;;11.60;2.28;;;;;;;6.47;100.00;100558.88;5439688;26;19995;-73
2024/04/16 03:33:59;;;;;;;12.75;2.13;;;;;;;6.51;100.00;100559.19;5458269;26;20772;-72
2024/04/16 03:36:25;;;;;;;13.85;2.50;;;;;;;6.49;100.00;100564.97;5489176;26;20006;-73
2024/04/16 03:38:51;;;;;;;15.93;2.50;;;;;;;6.49;100.00;100559.47;5458572;26;20806;-73
2024/04/16 03:41:16;;;;;;;11.77;2.00;;;;;;;6.53;100.00;100557.00;5458448;26;20018;-73
2024/04/16 03:43:42;;;;;;;8.90;2.00;;;;;;;6.52;100.00;100554.50;5458050;26;20002;-73
2024/04/16 03:46:07;;;;;;;16.15;2.42;;;;;;;6.49;100.00;100556.72;5428880;26;20006;-73
2024/04/16 03:48:33;;;;;;;12.13;2.40;;;;;;;6.47;100.00;100558.06;5428755;26;20006;-73
2024/04/16 03:50:58;;;;;;;15.90;2.58;;;;;;;6.46;100.00;100545.34;5428682;26;20326;-73
2024/04/16 03:53:24;;;;;;;13.52;3.03;;;;;;;6.49;100.00;100559.47;5458112;26;20017;-73
2024/04/16 03:55:49;;;;;;;15.00;2.58;;;;;;;6.50;100.00;100552.00;5488880;26;20042;-72
2024/04/16 03:58:15;;;;;;;13.70;2.15;;;;;;;6.48;100.00;100557.78;5456551;26;20003;-73
2024/04/16 04:03:24;;;;;;;13.55;2.65;;;;;;;6.45;100.00;100554.72;5489058;26;20100;-73
2024/04/16 04:05:50;;;;;;;14.00;2.80;;;;;;;6.43;100.00;100549.47;5457724;26;20010;-73
2024/04/16 04:08:16;;;;;;;13.77;2.55;;;;;;;6.44;100.00;100556.66;5427934;26;20359;-73
2024/04/16 04:10:41;;;;;;;14.77;2.50;;;;;;;6.43;100.00;100552.22;5488643;26;20016;-73
2024/04/16 04:13:07;;;;;;;13.27;2.25;;;;;;;6.41;100.00;100559.97;5457698;26;20759;-73
2024/04/16 04:15:32;;;;;;;12.50;2.00;;;;;;;6.43;100.00;100567.94;5427897;26;20002;-73
2024/04/16 04:17:58;;;;;;;13.38;2.63;;;;;;;6.39;100.00;100570.41;5488252;26;20013;-73
2024/04/16 04:20:23;;;;;;;10.85;2.08;;;;;;;6.41;100.00;100565.47;5505353;25;20008;-73
2024/04/16 04:22:49;;;;;;;13.07;2.30;;;;;;;6.42;100.00;100582.84;5495463;26;20011;-73
2024/04/16 04:25:14;;;;;;;12.40;2.10;;;;;;;6.43;100.00;100571.53;5466037;26;20017;-73
2024/04/16 04:27:43;;;;;;;11.27;2.50;;;;;;;6.44;100.00;100575.16;5461651;26;20006;-73
2024/04/16 04:30:09;;;;;;;13.93;2.58;;;;;;;6.47;100.00;100569.94;5518733;26;20006;-73
2024/04/16 04:32:34;;;;;;;13.10;2.20;;;;;;;6.49;100.00;100569.66;5467458;26;20012;-73
2024/04/16 04:35:00;;;;;;;10.65;2.17;;;;;;;6.50;100.00;100574.09;5437182;26;20006;-73
2024/04/16 04:37:26;;;;;;;17.00;2.90;;;;;;;6.53;100.00;100561.69;5467952;26;20005;-73
2024/04/16 04:39:51;;;;;;;13.00;2.80;;;;;;;6.53;100.00;100567.22;5467314;26;19998;-73
2024/04/16 04:42:17;;;;;;;11.27;2.72;;;;;;;6.55;100.00;100576.06;5498194;26;20005;-73
2024/04/16 04:44:42;;;;;;;8.90;1.98;;;;;;;6.57;100.00;100577.44;5432071;26;20002;-73
2024/04/16 04:47:08;;;;;;;11.52;1.92;;;;;;;6.57;100.00;100571.09;5407791;26;20012;-73
2024/04/16 04:49:34;;;;;;;13.43;2.38;;;;;;;6.57;100.00;100568.31;5437563;26;20072;-73
2024/04/16 04:51:59;;;;;;;11.90;2.80;;;;;;;6.55;100.00;100576.06;5465389;26;20005;-73
2024/04/16 04:54:24;;;;;;;14.18;2.58;;;;;;;6.54;100.00;100580.72;5488306;26;20030;-73
2024/04/16 04:56:50;;;;;;;12.15;2.58;;;;;;;6.57;100.00;100582.13;5514422;26;20005;-73
2024/04/16 04:59:16;;;;;;;10.13;2.33;;;;;;;6.60;100.00;100589.88;5467191;26;20041;-73
2024/04/16 05:01:41;;;;;;;12.48;2.22;;;;;;;6.62;100.00;100593.19;5435999;26;20001;-73
2024/04/16 05:04:07;;;;;;;14.23;2.30;;;;;;;6.61;100.00;100591.53;5431101;26;20016;-73
2024/04/16 05:06:33;;;;;;;11.48;2.30;;;;;;;6.61;100.00;100602.59;5520896;26;20013;-73
2024/04/16 05:08:59;;;;;;;10.13;2.25;;;;;;;6.68;100.00;100592.94;5467526;26;20462;-73
2024/04/16 05:11:25;;;;;;;11.55;2.95;;;;;;;6.66;100.00;100588.81;5467377;26;20002;-73
2024/04/16 05:13:50;;;;;;;11.82;2.25;;;;;;;6.67;100.00;100583.03;5494562;26;20856;-73
2024/04/16 05:16:16;;;;;;;12.30;2.05;;;;;;;6.68;100.00;100583.84;5497528;26;20005;-73
2024/04/16 05:18:41;;;;;;;9.15;2.70;;;;;;;6.69;100.00;100588.28;5430784;26;20026;-73
2024/04/16 05:21:07;;;;;;;12.77;2.50;;;;;;;6.70;100.00;100585.25;5449454;26;20009;-74
2024/04/16 05:23:32;;;;;;;9.35;1.80;;;;;;;6.75;100.00;100587.22;5466772;26;20016;-73
2024/04/16 05:26:02;;;;;;;11.98;2.75;;;;;;;6.73;100.00;100583.88;5466682;26;20032;-74
2024/04/16 05:28:29;;;;;;;14.05;2.10;;;;;;;6.74;100.00;100591.06;5494710;26;20016;-73
2024/04/16 05:30:54;;;;;;;15.70;2.20;;;;;;;6.77;100.00;100590.56;5519831;26;20052;-73
2024/04/16 05:33:19;;;;;;;10.82;2.30;;;;;;;6.77;100.00;100596.06;5404777;26;20002;-73
2024/04/16 05:35:45;;;;;;;11.07;2.22;;;;;;;6.79;100.00;100604.06;5496935;26;20031;-73
2024/04/16 05:38:10;;;;;;;16.88;2.53;;;;;;;6.79;100.00;100604.91;5497038;26;20013;-73
2024/04/16 05:40:36;;;;;;;12.43;2.25;;;;;;;6.79;100.00;100602.13;5466490;26;19997;-73
2024/04/16 05:43:01;;;;;;;11.73;2.42;;;;;;;6.83;100.00;100606.03;5436648;26;19997;-73
2024/04/16 05:45:27;;;;;;;18.60;2.58;;;;;;;6.84;100.00;100607.69;5464492;26;20497;-73
2024/04/16 05:47:52;;;;;;;12.93;2.00;;;;;;;6.86;100.00;100610.19;5466639;26;20012;-73
2024/04/16 05:50:18;;;;;;;13.57;2.50;;;;;;;6.89;100.00;100607.72;5496794;26;20465;-73
2024/04/16 05:52:44;;;;;;;9.70;2.22;;;;;;;6.88;100.00;100607.97;5466646;26;20005;-72
2024/04/16 05:55:09;;;;;;;10.88;2.67;;;;;;;6.92;100.00;100607.19;5493623;26;20008;-73
2024/04/16 05:57:35;;;;;;;15.57;2.53;;;;;;;6.96;100.00;100601.94;5436582;26;20013;-73
2024/04/16 06:00:00;;;;;;;9.52;2.05;;;;;;;7.01;100.00;100603.94;5432834;26;20483;-73
2024/04/16 06:02:26;;;;;;;12.68;2.67;;;;;;;7.05;100.00;100599.50;5491881;26;20083;-73
2024/04/16 06:04:51;;;;;;;15.63;2.65;;;;;;;7.08;100.00;100597.06;5529346;26;20017;-73
2024/04/16 06:07:17;;;;;;;11.45;2.60;;;;;;;7.12;100.00;100600.09;5491548;26;20012;-73
2024/04/16 06:09:42;;;;;;;10.40;2.75;;;;;;;7.15;100.00;100608.69;5515140;26;20010;-73
2024/04/16 06:12:08;;;;;;;10.93;2.47;;;;;;;7.18;100.00;100612.84;5419285;26;21515;-73
2024/04/16 06:14:34;;;;;;;14.68;2.50;;;;;;;7.23;100.00;100609.28;5490756;26;20011;-73
2024/04/16 06:16:59;;;;;;;7.82;1.85;;;;;;;7.29;100.00;100609.03;5405825;26;19997;-72
2024/04/16 06:19:25;;;;;;;11.02;2.25;;;;;;;7.40;100.00;100609.91;5495900;26;20054;-73
2024/04/16 06:21:50;;;;;;;12.80;2.35;;;;;;;7.48;100.00;100605.78;5447161;26;20001;-72
2024/04/16 06:24:16;;;;;;;18.75;2.58;;;;;;;7.52;100.00;100601.38;5465803;26;19997;-72
2024/04/16 06:26:41;;;;;;;17.08;2.60;;;;;;;7.53;100.00;100603.88;5443563;25;20000;-72
2024/04/16 06:29:07;;;;;;;11.55;2.20;;;;;;;7.58;100.00;100598.38;5461855;26;20038;-72
2024/04/16 06:31:32;;;;;;;13.00;2.45;;;;;;;7.63;100.00;100613.28;5433308;25;20374;-72
2024/04/16 06:33:58;;;;;;;14.23;2.30;;;;;;;7.67;100.00;100606.97;5464832;26;19998;-73
2024/04/16 06:36:23;;;;;;;15.52;3.33;;;;;;;7.71;100.00;100608.06;5400536;25;20016;-72
2024/04/16 06:38:49;;;;;;;16.17;2.35;;;;;;;7.76;100.00;100601.72;5435716;26;20073;-72
2024/04/16 06:41:14;;;;;;;13.55;2.80;;;;;;;7.81;100.00;100608.09;5465267;25;20012;-72
2024/04/16 06:43:40;;;;;;;15.88;2.60;;;;;;;7.86;100.00;100606.47;5406105;26;20001;-72
2024/04/16 06:46:05;;;;;;;9.98;2.47;;;;;;;7.87;100.00;100611.69;5458321;26;19998;-72
2024/04/16 06:48:31;;;;;;;15.02;2.90;;;;;;;7.93;100.00;100607.81;5470183;26;20033;-72
2024/04/16 06:50:57;;;;;;;18.73;3.05;;;;;;;8.02;100.00;100610.88;5435616;26;20001;-72
2024/04/16 06:53:22;;;;;;;16.98;2.67;;;;;;;8.06;100.00;100617.53;5440019;26;20073;-72
2024/04/16 06:56:01;;;;;;;14.55;2.42;;;;;;;8.12;100.00;100621.97;5476857;26;20055;-72
2024/04/16 06:58:26;;;;;;;12.25;2.80;;;;;;;8.16;100.00;100625.84;5465286;26;20020;-72
2024/04/16 07:00:52;;;;;;;11.95;2.38;;;;;;;8.18;100.00;100620.84;5442477;25;20001;-72
2024/04/16 07:03:17;;;;;;;15.38;3.17;;;;;;;8.23;100.00;100631.09;5434989;26;20065;-72
2024/04/16 07:05:43;;;;;;;15.18;2.80;;;;;;;8.25;100.00;100615.91;5465119;26;19998;-72
2024/04/16 07:08:08;;;;;;;19.60;2.65;;;;;;;8.28;100.00;100615.34;5433881;26;20017;-73
2024/04/16 07:10:34;;;;;;;16.73;2.58;;;;;;;8.32;100.00;100615.63;5465140;26;20033;-72
2024/04/16 07:12:59;;;;;;;14.70;3.28;;;;;;;8.38;100.00;100620.03;5428470;26;20013;-72
2024/04/16 07:15:25;;;;;;;20.58;3.60;;;;;;;8.41;100.00;100618.69;5469403;26;20015;-72
2024/04/16 07:17:50;;;;;;;19.15;3.15;;;;;;;8.45;100.00;100619.81;5475685;26;20060;-72
2024/04/16 07:20:16;;;;;;;18.83;3.67;;;;;;;8.52;100.00;100620.34;5451346;26;20046;-72
2024/04/16 07:22:41;;;;;;;19.55;2.70;;;;;;;8.57;100.00;100617.56;5427265;26;20005;-72
2024/04/16 07:25:06;;;;;;;18.42;3.33;;;;;;;8.63;100.00;100622.00;5532678;25;19997;-72
2024/04/16 07:27:32;;;;;;;16.33;2.83;;;;;;;8.70;100.00;100616.19;5460994;26;20010;-72
2024/04/16 07:29:57;;;;;;;14.52;2.72;;;;;;;8.76;100.00;100617.00;5459206;26;20011;-72
2024/04/16 07:32:23;;;;;;;14.32;2.55;;;;;;;8.86;100.00;100614.19;5457690;26;23946;-72
2024/04/16 07:34:48;;;;;;;15.10;2.50;;;;;;;8.91;100.00;100623.34;5484183;26;19993;-72
2024/04/16 07:37:14;;;;;;;15.30;2.40;;;;;;;8.96;100.00;100616.97;5420598;26;20014;-72
2024/04/16 07:39:39;;;;;;;19.60;3.45;;;;;;;9.05;100.00;100609.72;5465537;26;20020;-72
2024/04/16 07:42:05;;;;;;;15.27;2.78;;;;;;;9.10;100.00;100609.72;5439093;26;20010;-72
2024/04/16 07:44:30;;;;;;;12.48;2.55;;;;;;;9.19;100.00;100609.97;5479781;26;20034;-72
2024/04/16 07:46:59;;;;;;;14.38;3.45;;;;;;;9.27;100.00;100614.91;5490791;26;19998;-73
2024/04/16 07:49:24;;;;;;;16.40;2.45;;;;;;;9.38;100.00;100611.00;5463485;26;19998;-73
2024/04/16 07:51:50;;;;;;;20.42;3.63;;;;;;;9.47;100.00;100608.47;5434155;26;19998;-72
2024/04/16 07:54:15;;;;;;;21.08;3.30;;;;;;;9.56;100.00;100612.31;5457711;26;20006;-72
2024/04/16 07:56:41;;;;;;;24.55;3.47;;;;;;;9.70;100.00;100604.19;5487513;26;20017;-73
2024/04/16 07:59:07;;;;;;;15.63;3.42;;;;;;;9.78;100.00;100613.88;5466965;26;20001;-72
2024/04/16 08:01:32;;;;;;;21.00;3.97;;;;;;;9.90;100.00;100619.06;5479740;26;20009;-73
2024/04/16 08:03:58;;;;;;;18.77;3.50;;;;;;;10.02;100.00;100622.31;5494470;26;20352;-73
2024/04/16 08:06:23;;;;;;;21.02;4.03;;;;;;;10.16;100.00;100619.72;5408454;26;20024;-72
2024/04/16 08:08:50;;;;;;;21.65;3.72;;;;;;;10.25;100.00;100613.28;5437210;26;20009;-72
2024/04/16 08:11:16;;;;;;;16.77;3.00;;;;;;;10.36;100.00;100618.75;5466315;26;20009;-72
2024/04/16 08:13:42;;;;;;;24.58;3.50;;;;;;;10.46;100.00;100630.59;5427015;26;19993;-72
2024/04/16 08:16:07;;;;;;;27.10;3.97;;;;;;;10.55;100.00;100611.38;5484137;26;20013;-72
2024/04/16 08:18:33;;;;;;;24.98;3.55;;;;;;;10.65;100.00;100621.56;5485014;25;20069;-72
2024/04/16 08:20:58;;;;;;;19.00;2.92;;;;;;;10.78;100.00;100622.81;5454073;26;19998;-72
2024/04/16 08:23:24;;;;;;;20.77;4.20;;;;;;;10.92;100.00;100621.88;5450805;26;19995;-72
2024/04/16 08:25:59;;;;;;;18.42;3.15;;;;;;;11.05;100.00;100619.50;5450730;26;19998;-73
2024/04/16 08:28:24;;;;;;;17.98;2.90;;;;;;;11.18;100.00;100629.91;5455896;26;20002;-72
2024/04/16 08:30:52;;;;;;;16.63;2.80;;;;;;;11.26;100.00;100628.44;5426450;26;20758;-72
2024/04/16 08:33:20;;;;;;;21.75;3.50;;;;;;;11.34;100.00;100633.38;5466038;26;20470;-73
2024/04/16 08:35:45;;;;;;;23.90;3.50;;;;;;;11.41;100.00;100628.25;5476717;25;20002;-72
2024/04/16 08:38:11;;;;;;;21.50;3.63;;;;;;;11.52;100.00;100632.56;5454823;26;19995;-72
2024/04/16 08:40:37;;;;;;;17.75;3.67;;;;;;;11.64;100.00;100632.13;5428322;26;20002;-73
2024/04/16 08:43:03;;;;;;;23.92;4.28;;;;;;;11.71;100.00;100643.72;5456330;26;20009;-72
2024/04/16 08:45:28;;;;;;;24.42;3.83;;;;;;;11.80;100.00;100641.94;5444992;26;20011;-72
2024/04/16 08:47:54;;;;;;;20.92;2.92;;;;;;;11.90;100.00;100640.19;5453725;26;20060;-72
2024/04/16 08:50:20;;;;;;;20.38;3.50;;;;;;;12.04;100.00;100641.09;5423516;26;20015;-72
2024/04/16 08:52:46;;;;;;;18.52;3.50;;;;;;;12.14;100.00;100634.53;5446955;26;20477;-73
2024/04/16 08:55:12;;;;;;;21.67;3.15;;;;;;;12.24;100.00;100637.16;5482439;26;20338;-72
2024/04/16 08:57:37;;;;;;;18.45;3.08;;;;;;;12.34;100.00;100638.94;5413179;26;20058;-73
2024/04/16 09:00:03;;;;;;;20.42;3.70;;;;;;;12.43;100.00;100648.28;5453093;26;20002;-73
2024/04/16 09:02:28;;;;;;;19.33;3.42;;;;;;;12.49;100.00;100647.91;5464275;26;19998;-73
2024/04/16 09:04:56;;;;;;;21.65;3.28;;;;;;;12.54;100.00;100649.78;5510228;26;20003;-72
2024/04/16 09:07:21;;;;;;;23.08;3.45;;;;;;;12.60;100.00;100651.34;5423154;26;20666;-73
2024/04/16 09:09:47;;;;;;;20.42;3.22;;;;;;;12.68;100.00;100633.13;5481128;25;20006;-73
2024/04/16 09:12:12;;;;;;;19.70;2.97;;;;;;;12.79;100.00;100630.94;5421856;26;20011;-73
2024/04/16 09:14:38;;;;;;;13.50;2.80;;;;;;;12.86;100.00;100632.22;5469910;26;20008;-72
2024/04/16 09:17:03;;;;;;;20.67;3.92;;;;;;;12.97;100.00;100636.47;5448948;26;19999;-72
2024/04/16 09:19:29;;;;;;;23.90;3.78;;;;;;;13.02;100.00;100655.06;5452625;26;20462;-72
2024/04/16 09:21:59;;;;;;;16.02;3.03;;;;;;;13.04;100.00;100650.03;5442711;26;20021;-73
2024/04/16 09:24:24;;;;;;;23.08;3.00;;;;;;;13.05;100.00;100648.88;5481332;25;19998;-72
2024/04/16 09:26:50;;;;;;;15.80;2.20;;;;;;;13.03;100.00;100653.91;5474489;26;20013;-72
2024/04/16 09:29:23;;;;;;;10.77;2.05;;;;;;;12.93;100.00;100662.50;5451024;26;20468;-73
2024/04/16 09:31:57;;;;;;;16.65;2.47;;;;;;;12.97;100.00;100680.25;5453475;26;19999;-73
2024/04/16 09:34:23;;;;;;;14.77;2.35;;;;;;;12.91;100.00;100653.59;5476261;26;20643;-73
2024/04/16 09:36:48;;;;;;;13.00;2.35;;;;;;;12.94;100.00;100655.78;5425422;26;19998;-73
2024/04/16 09:39:21;;;;;;;13.55;3.60;;;;;;;13.00;100.00;100659.28;5460383;26;19998;-72
2024/04/16 09:41:50;;;;;;;20.15;2.50;;;;;;;12.93;100.00;100682.81;5426609;26;20010;-72
2024/04/16 09:44:16;;;;;;;10.07;2.20;;;;;;;12.94;100.00;100678.06;5430082;26;20035;-73
2024/04/16 09:46:46;;;;;;;13.70;2.20;;;;;;;12.88;100.00;100688.47;5426950;26;20007;-73
2024/04/16 09:49:16;;;;;;;8.90;2.42;;;;;;;12.77;100.00;100680.59;5459387;26;20078;-73
2024/04/16 09:51:41;;;;;;;10.00;1.95;;;;;;;12.68;100.00;100672.13;5459819;26;20017;-72
2024/04/16 09:54:09;;;;;;;11.00;2.05;;;;;;;12.62;100.00;100679.75;5423902;26;20494;-72
2024/04/16 09:56:35;;;;;;;15.00;2.40;;;;;;;12.57;100.00;100676.22;5478432;26;20446;-73
2024/04/16 09:59:01;;;;;;;13.60;2.40;;;;;;;12.51;100.00;100675.47;5430040;26;20006;-73
2024/04/16 10:01:29;;;;;;;15.52;2.67;;;;;;;12.50;100.00;100669.03;5456168;26;20388;-73
2024/04/16 10:03:55;;;;;;;14.18;2.83;;;;;;;12.55;100.00;100672.88;5429923;26;20002;-72
2024/04/16 10:06:21;;;;;;;9.77;2.58;;;;;;;12.57;100.00;100663.09;5458144;26;20019;-72
2024/04/16 10:08:48;;;;;;;13.63;2.35;;;;;;;12.63;100.00;100673.03;5400371;26;20047;-72
2024/04/16 10:11:15;;;;;;;12.75;1.63;;;;;;;12.69;100.00;100660.66;5430292;26;20002;-73
2024/04/16 10:13:40;;;;;;;11.95;1.98;;;;;;;12.72;100.00;100662.81;5428367;26;20046;-74
2024/04/16 10:16:15;;;;;;;14.75;2.13;;;;;;;12.76;100.00;100663.06;5457771;26;20011;-74
2024/04/16 10:18:40;;;;;;;10.93;1.65;;;;;;;12.79;100.00;100656.03;5430926;26;20079;-74
2024/04/16 10:21:06;;;;;;;8.48;1.73;;;;;;;12.79;100.00;100644.88;5465395;26;20030;-73
2024/04/16 10:23:32;;;;;;;16.50;2.55;;;;;;;12.83;100.00;100637.56;5483360;26;20054;-74
2024/04/16 10:25:58;;;;;;;13.35;2.10;;;;;;;12.91;100.00;100645.25;5466259;26;20001;-74
2024/04/16 10:28:33;;;;;;;14.73;2.28;;;;;;;13.02;100.00;100634.72;5459546;26;20442;-74
2024/04/16 10:31:10;;;;;;;14.90;2.80;;;;;;;13.18;100.00;100636.91;5493059;26;20005;-73
2024/04/16 10:33:36;;;;;;;11.50;1.77;;;;;;;13.36;100.00;100631.56;5467208;26;20013;-74
2024/04/16 10:36:08;;;;;;;14.07;2.00;;;;;;;13.53;100.00;100619.78;5462360;26;20005;-74
2024/04/16 10:38:35;;;;;;;9.05;1.85;;;;;;;13.73;100.00;100624.94;5491599;26;20002;-74
2024/04/16 10:41:00;;;;;;;14.18;2.28;;;;;;;13.94;100.00;100625.31;5496092;26;20002;-74
2024/04/16 10:43:26;;;;;;;7.55;1.90;;;;;;;14.10;100.00;100628.59;5495822;26;20086;-74
2024/04/16 10:45:52;;;;;;;11.45;1.90;;;;;;;14.22;100.00;100619.66;5435754;26;20008;-74
2024/04/16 10:48:19;;;;;;;11.55;1.58;;;;;;;14.36;100.00;100628.78;5402427;26;20330;-74
2024/04/16 10:50:45;;;;;;;8.23;1.52;;;;;;;14.45;100.00;100626.88;5464976;26;20082;-73
2024/04/16 10:53:13;;;;;;;8.55;1.80;;;;;;;14.51;100.00;100622.84;5458301;26;20014;-73
2024/04/16 10:55:42;;;;;;;8.05;1.50;;;;;;;14.61;100.00;100629.34;5429616;26;20069;-74
2024/04/16 10:58:12;;;;;;;7.70;1.48;;;;;;;14.62;98.36;100622.59;5494442;26;20039;-73
2024/04/16 11:00:38;;;;;;;9.23;1.80;;;;;;;14.71;100.00;100627.13;5518206;25;20033;-73
2024/04/16 11:03:03;;;;;;;8.98;1.45;;;;;;;14.66;99.80;100630.03;5438590;26;20006;-72
2024/04/16 11:05:29;;;;;;;13.18;1.75;;;;;;;14.75;97.34;100627.28;5480145;26;20002;-72
2024/04/16 11:07:55;;;;;;;12.23;1.73;;;;;;;14.72;97.49;100622.34;5467817;26;20330;-72
2024/04/16 11:10:20;;;;;;;15.25;2.33;;;;;;;14.74;98.29;100625.66;5428204;26;20050;-72
2024/04/16 11:12:46;;;;;;;9.57;2.20;;;;;;;14.79;98.39;100619.91;5478696;26;19994;-72